Time;durP1;ratioP1;P1;durP2;ratioP2;P2;SDS_P1;SDS_P2;PMS_P1;PMS_P2;Temp;Humidity;BMP_temperature;BMP_pressure;BME280_temperature;BME280_humidity;BME280_pressure;Samples;Min_cycle;Max_cycle;Signal;HPM_P1;HPM_P2
2022/01/23 00:00:16;;;;;;;33.50;17.50;;;;;;;;;;5072501;28;20036;-76
2022/01/23 00:02:42;;;;;;;43.38;19.50;;;;;;;;;;5072454;28;20024;-73
2022/01/23 00:05:08;;;;;;;44.95;20.40;;;;;;;;;;5072240;28;20052;-74
2022/01/23 00:07:34;;;;;;;49.28;21.05;;;;;;;;;;5054362;28;20021;-74
2022/01/23 00:10:04;;;;;;;46.92;22.20;;;;;;;;;;5072327;28;20020;-74
2022/01/23 00:12:35;;;;;;;44.53;21.30;;;;;;;;;;5072096;28;20028;-74
2022/01/23 00:17:45;;;;;;;47.50;20.48;;;;;;;;;;5072209;28;20509;-73
2022/01/23 00:20:12;;;;;;;63.13;27.50;;;;;;;;;;5072466;28;20025;-73
2022/01/23 00:22:45;;;;;;;54.45;27.67;;;;;;;;;;5071888;28;20103;-77
2022/01/23 00:30:43;;;;;;;53.08;24.42;;;;;;;;;;5072237;28;20437;-74
2022/01/23 00:33:09;;;;;;;65.57;25.65;;;;;;;;;;5053793;28;20078;-74
2022/01/23 00:35:36;;;;;;;53.60;24.58;;;;;;;;;;5071737;28;20040;-73
2022/01/23 00:38:03;;;;;;;51.08;23.30;;;;;;;;;;5071901;28;20383;-77
2022/01/23 00:40:30;;;;;;;45.38;20.02;;;;;;;;;;5072292;28;20032;-74
2022/01/23 00:42:58;;;;;;;42.75;19.77;;;;;;;;;;5053005;28;20032;-74
2022/01/23 00:47:53;;;;;;;36.85;18.80;;;;;;;;;;5071674;28;20036;-74
2022/01/23 00:50:19;;;;;;;43.65;20.98;;;;;;;;;;5053544;28;20178;-76
2022/01/23 00:52:45;;;;;;;40.13;20.15;;;;;;;;;;5071500;28;20496;-72
2022/01/23 00:55:11;;;;;;;36.58;19.13;;;;;;;;;;5053531;28;20036;-74
2022/01/23 00:57:37;;;;;;;37.22;18.55;;;;;;;;;;5071856;28;20077;-74
2022/01/23 01:00:04;;;;;;;37.85;20.00;;;;;;;;;;5053593;28;20533;-75
2022/01/23 01:02:30;;;;;;;42.55;19.98;;;;;;;;;;5071416;28;20031;-74
2022/01/23 01:04:56;;;;;;;35.22;18.67;;;;;;;;;;5071021;28;20397;-74
2022/01/23 01:07:22;;;;;;;41.22;19.83;;;;;;;;;;5053375;28;20021;-74
2022/01/23 01:09:51;;;;;;;36.53;19.77;;;;;;;;;;5071709;28;20470;-74
2022/01/23 01:12:22;;;;;;;33.35;17.75;;;;;;;;;;5071476;28;20024;-74
2022/01/23 01:17:27;;;;;;;32.28;17.48;;;;;;;;;;5071371;28;20032;-75
2022/01/23 01:30:16;;;;;;;27.38;16.10;;;;;;;;;;5071641;28;20070;-75
2022/01/23 01:31:07;;;;;;;;;;;;;;;;;;;;;
2022/01/23 01:35:59;;;;;;;33.58;15.80;;;;;;;;;;5070010;28;20397;-74
2022/01/23 01:38:25;;;;;;;23.00;14.25;;;;;;;;;;5086690;28;20154;-74
2022/01/23 01:40:52;;;;;;;21.35;12.63;;;;;;;;;;5053067;28;20025;-75
2022/01/23 01:43:18;;;;;;;28.50;16.13;;;;;;;;;;5070831;28;20072;-75
2022/01/23 01:45:44;;;;;;;27.23;14.88;;;;;;;;;;5071402;28;20444;-74
2022/01/23 01:48:10;;;;;;;20.25;12.85;;;;;;;;;;5052881;28;20013;-75
2022/01/23 01:50:43;;;;;;;23.92;13.60;;;;;;;;;;5071061;28;20028;-74
2022/01/23 01:53:10;;;;;;;23.35;13.82;;;;;;;;;;5052809;28;20074;-74
2022/01/23 01:55:42;;;;;;;21.85;12.60;;;;;;;;;;5055892;28;20077;-75
2022/01/23 01:58:22;;;;;;;26.38;13.75;;;;;;;;;;5056664;28;20115;-75
2022/01/23 02:00:55;;;;;;;22.35;12.60;;;;;;;;;;5074374;28;20017;-75
2022/01/23 02:08:17;;;;;;;21.02;12.32;;;;;;;;;;5056354;28;20031;-74
2022/01/23 02:08:53;;;;;;;26.08;13.90;;;;;;;;;;5074442;28;20097;-75
2022/01/23 02:11:40;;;;;;;22.13;11.88;;;;;;;;;;5074341;28;20044;-75
2022/01/23 02:14:25;;;;;;;20.88;11.35;;;;;;;;;;5074097;28;20024;-76
2022/01/23 02:25:13;;;;;;;17.75;9.75;;;;;;;;;;5074016;28;20090;-75
2022/01/23 02:55:28;;;;;;;28.52;13.73;;;;;;;;;;5073585;28;20135;-76
2022/01/23 02:57:58;;;;;;;24.25;14.88;;;;;;;;;;5055731;28;20028;-75
2022/01/23 03:00:31;;;;;;;28.08;14.77;;;;;;;;;;5073759;28;20094;-75
2022/01/23 03:03:03;;;;;;;22.27;12.77;;;;;;;;;;5073324;28;20032;-75
2022/01/23 03:08:05;;;;;;;23.30;13.73;;;;;;;;;;5073890;28;20063;-73
2022/01/23 03:10:39;;;;;;;19.50;11.13;;;;;;;;;;5055314;28;20016;-75
2022/01/23 03:31:33;;;;;;;23.05;12.18;;;;;;;;;;5073309;28;20492;-74
2022/01/23 03:33:59;;;;;;;21.08;11.70;;;;;;;;;;5073254;28;20049;-74
2022/01/23 03:36:25;;;;;;;22.77;12.70;;;;;;;;;;5073040;28;20367;-74
2022/01/23 03:38:51;;;;;;;21.77;12.48;;;;;;;;;;5072778;28;20031;-74
2022/01/23 03:41:18;;;;;;;20.52;12.60;;;;;;;;;;5072854;28;20027;-74
2022/01/23 03:43:44;;;;;;;23.88;13.80;;;;;;;;;;5072590;28;20482;-75
2022/01/23 03:47:12;;;;;;;19.45;12.15;;;;;;;;;;5054787;28;20033;-76
2022/01/23 03:51:44;;;;;;;21.38;12.20;;;;;;;;;;5070170;28;20099;-75
2022/01/23 03:54:10;;;;;;;19.25;12.20;;;;;;;;;;5054358;28;20424;-75
2022/01/23 03:56:36;;;;;;;21.88;12.80;;;;;;;;;;5072506;28;20025;-75
2022/01/23 03:59:02;;;;;;;20.85;11.50;;;;;;;;;;5072465;28;20046;-75
2022/01/23 04:01:28;;;;;;;21.30;12.45;;;;;;;;;;5072208;28;20032;-76
2022/01/23 04:03:58;;;;;;;20.75;12.90;;;;;;;;;;5072008;28;20043;-74
2022/01/23 04:06:24;;;;;;;23.70;12.27;;;;;;;;;;5054336;28;20518;-73
2022/01/23 04:08:50;;;;;;;22.23;12.48;;;;;;;;;;5054202;28;20024;-74
2022/01/23 04:11:17;;;;;;;22.35;13.48;;;;;;;;;;5072183;28;20028;-74
2022/01/23 04:14:08;;;;;;;27.02;13.15;;;;;;;;;;5071795;28;20511;-74
2022/01/23 04:16:50;;;;;;;20.52;12.10;;;;;;;;;;5071722;28;20778;-74
2022/01/23 04:20:07;;;;;;;20.65;11.40;;;;;;;;;;5057860;28;20050;-74
2022/01/23 04:59:49;;;;;;;20.77;11.35;;;;;;;;;;5071781;28;20036;-75
2022/01/23 05:02:49;;;;;;;;;;;;;;;;;;;;;
2022/01/23 05:04:42;;;;;;;18.83;10.90;;;;;;;;;;5071484;28;20451;-75
2022/01/23 05:07:10;;;;;;;21.58;10.68;;;;;;;;;;5072045;28;20386;-75
2022/01/23 05:09:37;;;;;;;21.23;11.45;;;;;;;;;;5071651;28;20025;-75
2022/01/23 05:12:04;;;;;;;18.55;10.82;;;;;;;;;;5071727;28;20021;-75
2022/01/23 05:14:39;;;;;;;17.15;10.07;;;;;;;;;;5071084;28;20546;-75
2022/01/23 05:17:07;;;;;;;16.63;10.05;;;;;;;;;;5056148;28;20025;-76
2022/01/23 05:19:34;;;;;;;19.30;10.32;;;;;;;;;;5071523;28;20048;-75
2022/01/23 05:24:35;;;;;;;21.30;10.90;;;;;;;;;;5071706;28;20373;-74
2022/01/23 05:27:03;;;;;;;17.23;10.35;;;;;;;;;;5051741;28;20039;-75
2022/01/23 05:29:29;;;;;;;21.60;11.60;;;;;;;;;;5060318;28;20382;-75
2022/01/23 05:31:55;;;;;;;22.80;12.15;;;;;;;;;;5075801;28;20091;-75
2022/01/23 05:34:23;;;;;;;19.65;11.00;;;;;;;;;;5075765;28;20062;-74
2022/01/23 05:36:49;;;;;;;18.17;10.82;;;;;;;;;;5075449;28;20032;-75
2022/01/23 05:39:18;;;;;;;17.73;10.52;;;;;;;;;;5075459;28;20021;-75
2022/01/23 05:41:44;;;;;;;20.25;11.23;;;;;;;;;;5075375;28;20052;-75
2022/01/23 05:44:10;;;;;;;21.73;11.05;;;;;;;;;;5074980;28;20024;-75
2022/01/23 05:46:36;;;;;;;18.92;11.65;;;;;;;;;;5075216;28;20028;-74
2022/01/23 05:49:02;;;;;;;18.42;10.13;;;;;;;;;;5075100;28;20097;-74
2022/01/23 05:51:28;;;;;;;17.08;10.05;;;;;;;;;;5049857;28;20451;-75
2022/01/23 05:53:54;;;;;;;17.92;10.75;;;;;;;;;;5074683;28;20052;-74
2022/01/23 05:56:20;;;;;;;19.33;9.77;;;;;;;;;;5058504;23;20076;-74
2022/01/23 05:58:46;;;;;;;15.65;10.30;;;;;;;;;;5051348;28;20036;-74
2022/01/23 06:01:12;;;;;;;15.25;9.27;;;;;;;;;;5039946;28;20017;-74
2022/01/23 06:03:38;;;;;;;17.35;10.27;;;;;;;;;;5045573;28;20035;-70
2022/01/23 06:06:04;;;;;;;15.85;8.82;;;;;;;;;;5053090;28;20478;-74
2022/01/23 06:08:30;;;;;;;14.63;8.82;;;;;;;;;;5054402;28;20029;-74
2022/01/23 06:10:57;;;;;;;17.42;9.07;;;;;;;;;;5051818;28;20110;-71
2022/01/23 06:13:24;;;;;;;15.55;9.73;;;;;;;;;;5040723;28;20539;-75
2022/01/23 06:15:50;;;;;;;14.63;8.93;;;;;;;;;;5044129;28;20036;-75
2022/01/23 06:18:16;;;;;;;17.33;10.23;;;;;;;;;;5048354;28;20033;-75
2022/01/23 06:20:42;;;;;;;16.42;10.73;;;;;;;;;;5037918;28;20034;-74
2022/01/23 06:23:08;;;;;;;16.85;10.35;;;;;;;;;;5049526;28;20026;-73
2022/01/23 06:25:36;;;;;;;16.58;10.00;;;;;;;;;;5042265;28;20407;-74
2022/01/23 06:28:04;;;;;;;17.55;9.60;;;;;;;;;;5042203;28;20018;-75
2022/01/23 06:30:30;;;;;;;17.73;9.75;;;;;;;;;;5050472;28;20031;-72
2022/01/23 06:32:56;;;;;;;18.08;9.50;;;;;;;;;;5034669;28;20056;-74
2022/01/23 06:35:22;;;;;;;14.05;8.63;;;;;;;;;;5022671;28;20028;-72
2022/01/23 06:37:48;;;;;;;15.23;8.82;;;;;;;;;;5044027;28;20060;-72
2022/01/23 06:40:14;;;;;;;15.32;9.15;;;;;;;;;;5047401;28;20060;-72
2022/01/23 06:42:40;;;;;;;17.23;9.90;;;;;;;;;;5036658;28;20033;-71
2022/01/23 06:45:06;;;;;;;15.35;9.32;;;;;;;;;;5044683;28;20028;-73
2022/01/23 06:47:32;;;;;;;18.48;10.20;;;;;;;;;;5053021;28;20032;-73
2022/01/23 06:49:58;;;;;;;15.10;9.70;;;;;;;;;;5026206;28;20029;-72
2022/01/23 06:52:24;;;;;;;16.80;9.43;;;;;;;;;;5049076;28;20052;-71
2022/01/23 06:54:50;;;;;;;14.20;9.35;;;;;;;;;;5034636;28;20037;-73
2022/01/23 06:57:16;;;;;;;15.13;8.88;;;;;;;;;;5058354;28;20025;-73
2022/01/23 06:59:42;;;;;;;17.02;10.15;;;;;;;;;;5062692;28;20033;-74
2022/01/23 07:02:09;;;;;;;17.40;10.18;;;;;;;;;;5053274;28;20116;-73
2022/01/23 07:04:35;;;;;;;16.35;10.27;;;;;;;;;;5052947;28;20029;-73
2022/01/23 07:07:01;;;;;;;17.90;10.07;;;;;;;;;;5049553;28;20035;-73
2022/01/23 07:09:27;;;;;;;16.10;9.70;;;;;;;;;;5040528;28;20027;-73
2022/01/23 07:11:53;;;;;;;14.48;9.30;;;;;;;;;;5042667;28;20104;-73
2022/01/23 07:14:19;;;;;;;19.17;9.85;;;;;;;;;;5054033;28;20028;-73
2022/01/23 07:16:45;;;;;;;14.65;8.90;;;;;;;;;;5053691;28;20029;-73
2022/01/23 07:19:11;;;;;;;14.75;8.95;;;;;;;;;;5038344;28;20040;-73
2022/01/23 07:21:37;;;;;;;12.77;8.20;;;;;;;;;;5053227;28;20442;-73
2022/01/23 07:24:03;;;;;;;12.65;7.95;;;;;;;;;;5040423;28;20057;-73
2022/01/23 07:26:30;;;;;;;14.43;7.40;;;;;;;;;;5048249;28;20029;-73
2022/01/23 07:28:59;;;;;;;11.82;7.20;;;;;;;;;;5036700;28;20024;-73
2022/01/23 07:33:56;;;;;;;13.80;7.85;;;;;;;;;;5044231;28;20510;-72
2022/01/23 07:36:22;;;;;;;13.85;8.30;;;;;;;;;;5037595;28;20067;-70
2022/01/23 07:38:48;;;;;;;14.50;8.88;;;;;;;;;;5049411;28;20029;-73
2022/01/23 07:41:14;;;;;;;13.88;8.95;;;;;;;;;;5038870;28;20029;-73
2022/01/23 07:43:40;;;;;;;15.27;9.23;;;;;;;;;;5046416;28;20021;-73
2022/01/23 07:46:06;;;;;;;16.92;10.68;;;;;;;;;;5052835;28;20474;-73
2022/01/23 07:48:32;;;;;;;16.40;11.45;;;;;;;;;;5051739;28;20032;-72
2022/01/23 07:50:58;;;;;;;17.75;11.10;;;;;;;;;;5033936;28;20052;-72
2022/01/23 07:53:24;;;;;;;16.70;11.48;;;;;;;;;;5051422;28;20082;-72
2022/01/23 07:55:50;;;;;;;15.63;11.00;;;;;;;;;;5024254;28;20091;-73
2022/01/23 07:58:16;;;;;;;17.33;11.20;;;;;;;;;;5046192;28;20032;-72
2022/01/23 08:00:42;;;;;;;19.13;11.35;;;;;;;;;;5017050;28;20029;-67
2022/01/23 08:03:09;;;;;;;18.55;11.80;;;;;;;;;;5045593;28;20120;-69
2022/01/23 08:05:35;;;;;;;19.85;12.95;;;;;;;;;;5038428;28;20092;-70
2022/01/23 08:08:01;;;;;;;22.38;11.52;;;;;;;;;;5038338;28;20033;-70
2022/01/23 08:10:27;;;;;;;21.02;12.48;;;;;;;;;;5027899;28;20449;-70
2022/01/23 08:12:53;;;;;;;18.67;11.57;;;;;;;;;;5039688;28;20271;-69
2022/01/23 08:15:19;;;;;;;17.25;11.20;;;;;;;;;;5042976;28;20037;-70
2022/01/23 08:17:45;;;;;;;17.75;11.88;;;;;;;;;;5034183;28;20402;-69
2022/01/23 08:20:11;;;;;;;17.10;11.65;;;;;;;;;;5038538;28;20033;-71
2022/01/23 08:22:37;;;;;;;15.65;11.85;;;;;;;;;;5048553;28;20033;-70
2022/01/23 08:25:04;;;;;;;16.80;11.32;;;;;;;;;;5028782;28;20033;-78
2022/01/23 08:27:31;;;;;;;19.42;11.32;;;;;;;;;;5050412;28;20021;-73
2022/01/23 08:29:57;;;;;;;24.45;15.40;;;;;;;;;;5038371;28;20023;-72
2022/01/23 08:32:23;;;;;;;16.75;11.90;;;;;;;;;;5033818;28;20025;-73
2022/01/23 08:34:49;;;;;;;16.27;10.98;;;;;;;;;;5048944;28;20029;-69
2022/01/23 08:37:15;;;;;;;21.67;13.82;;;;;;;;;;5045221;28;20235;-72
2022/01/23 08:39:41;;;;;;;32.88;21.70;;;;;;;;;;5039244;28;20483;-74
2022/01/23 08:42:12;;;;;;;27.98;17.17;;;;;;;;;;5019376;28;20021;-74
2022/01/23 08:44:39;;;;;;;27.00;16.52;;;;;;;;;;5044758;28;20033;-71
2022/01/23 08:47:05;;;;;;;21.77;14.77;;;;;;;;;;5046105;28;20036;-69
2022/01/23 08:49:31;;;;;;;21.42;13.40;;;;;;;;;;5031863;28;20021;-70
2022/01/23 08:51:58;;;;;;;18.38;12.02;;;;;;;;;;5039404;28;20033;-71
2022/01/23 08:54:24;;;;;;;20.67;13.13;;;;;;;;;;5036651;28;20044;-70
2022/01/23 08:56:51;;;;;;;14.48;10.15;;;;;;;;;;5050178;28;20036;-71
2022/01/23 08:59:17;;;;;;;19.00;11.98;;;;;;;;;;5045589;28;20056;-70
2022/01/23 09:01:43;;;;;;;17.17;10.45;;;;;;;;;;5043793;28;20075;-71
2022/01/23 09:04:11;;;;;;;17.55;11.25;;;;;;;;;;5049083;28;20032;-72
2022/01/23 09:06:37;;;;;;;15.40;10.82;;;;;;;;;;5030576;28;20457;-72
2022/01/23 09:09:05;;;;;;;17.02;11.07;;;;;;;;;;5033983;28;20051;-73
2022/01/23 09:16:29;;;;;;;13.32;9.43;;;;;;;;;;5034141;28;20034;-73
2022/01/23 09:18:55;;;;;;;12.40;8.27;;;;;;;;;;5046341;28;20041;-71
2022/01/23 09:21:21;;;;;;;14.77;10.15;;;;;;;;;;5037398;28;20064;-70
2022/01/23 09:23:47;;;;;;;13.82;9.55;;;;;;;;;;5040997;28;20124;-70
2022/01/23 09:26:16;;;;;;;9.73;7.38;;;;;;;;;;5044834;28;20036;-70
2022/01/23 09:28:44;;;;;;;9.23;7.03;;;;;;;;;;5035204;28;20014;-70
2022/01/23 09:31:12;;;;;;;10.75;7.25;;;;;;;;;;5027593;28;20104;-72
2022/01/23 09:33:39;;;;;;;8.65;6.88;;;;;;;;;;5051464;28;20028;-72
2022/01/23 09:36:04;;;;;;;11.15;6.90;;;;;;;;;;5039393;28;20029;-71
2022/01/23 09:38:30;;;;;;;9.15;6.25;;;;;;;;;;5047722;28;20032;-70
2022/01/23 09:40:58;;;;;;;10.07;7.03;;;;;;;;;;5016924;28;20027;-71
2022/01/23 09:43:24;;;;;;;9.45;6.72;;;;;;;;;;5044151;28;20080;-71
2022/01/23 09:45:53;;;;;;;11.02;7.05;;;;;;;;;;5041208;28;20100;-70
2022/01/23 09:48:19;;;;;;;10.63;6.38;;;;;;;;;;5018853;28;20025;-72
2022/01/23 09:50:46;;;;;;;9.48;6.18;;;;;;;;;;5012571;28;20026;-72
2022/01/23 09:53:14;;;;;;;9.45;6.57;;;;;;;;;;5048062;28;20033;-70
2022/01/23 09:55:46;;;;;;;9.25;6.38;;;;;;;;;;5049813;28;20041;-71
2022/01/23 09:58:16;;;;;;;10.77;6.72;;;;;;;;;;5033312;28;20026;-72
2022/01/23 10:00:42;;;;;;;9.20;6.67;;;;;;;;;;5016768;28;20116;-68
2022/01/23 10:03:08;;;;;;;8.43;6.05;;;;;;;;;;5045867;28;20063;-70
2022/01/23 10:05:34;;;;;;;9.52;6.30;;;;;;;;;;5039348;28;20033;-70
2022/01/23 10:08:01;;;;;;;7.82;5.55;;;;;;;;;;5027444;28;20105;-70
2022/01/23 10:10:30;;;;;;;10.88;6.95;;;;;;;;;;5046282;28;20435;-70
2022/01/23 10:12:58;;;;;;;8.35;6.57;;;;;;;;;;5047406;28;20025;-70
2022/01/23 10:15:25;;;;;;;7.80;6.13;;;;;;;;;;5020931;28;20032;-71
2022/01/23 10:17:52;;;;;;;9.30;6.47;;;;;;;;;;5043739;28;20029;-70
2022/01/23 10:20:18;;;;;;;13.23;7.53;;;;;;;;;;5048437;28;20036;-70
2022/01/23 10:22:47;;;;;;;11.65;7.35;;;;;;;;;;5019550;28;20446;-71
2022/01/23 10:25:15;;;;;;;11.23;7.55;;;;;;;;;;5048613;28;20434;-70
2022/01/23 10:27:50;;;;;;;12.38;7.68;;;;;;;;;;5043413;28;20033;-70
2022/01/23 10:30:17;;;;;;;8.88;6.63;;;;;;;;;;5040114;28;20029;-70
2022/01/23 10:32:55;;;;;;;10.30;6.70;;;;;;;;;;5050483;28;20025;-71
2022/01/23 10:35:21;;;;;;;9.90;7.18;;;;;;;;;;5033427;28;20032;-70
2022/01/23 10:37:49;;;;;;;9.25;7.07;;;;;;;;;;5037888;28;20395;-70
2022/01/23 10:40:34;;;;;;;9.52;6.53;;;;;;;;;;5046922;28;20029;-73
2022/01/23 10:48:38;;;;;;;11.00;6.10;;;;;;;;;;5051951;28;20095;-74
2022/01/23 10:51:14;;;;;;;8.23;5.72;;;;;;;;;;5032181;28;20406;-73
2022/01/23 10:54:06;;;;;;;11.60;7.05;;;;;;;;;;5046694;28;20021;-75
2022/01/23 10:56:51;;;;;;;12.25;8.45;;;;;;;;;;5000890;28;20072;-74
2022/01/23 10:59:17;;;;;;;14.88;7.32;;;;;;;;;;5049749;28;20032;-73
2022/01/23 11:01:59;;;;;;;12.50;7.78;;;;;;;;;;5017847;28;20025;-71
2022/01/23 11:04:25;;;;;;;33.40;16.70;;;;;;;;;;5035471;28;20079;-75
2022/01/23 11:06:52;;;;;;;51.63;26.60;;;;;;;;;;5037965;28;20096;-76
2022/01/23 11:09:19;;;;;;;14.60;9.68;;;;;;;;;;5039104;28;20017;-77
2022/01/23 11:11:48;;;;;;;34.63;19.10;;;;;;;;;;5049298;28;20391;-74
2022/01/23 11:19:46;;;;;;;35.83;19.45;;;;;;;;;;5048741;28;20036;-71
2022/01/23 11:22:20;;;;;;;27.15;15.10;;;;;;;;;;5050926;28;20036;-72
2022/01/23 11:24:48;;;;;;;18.70;10.85;;;;;;;;;;5036482;28;20025;-70
2022/01/23 11:27:18;;;;;;;24.13;14.73;;;;;;;;;;5049471;28;20482;-69
2022/01/23 11:30:02;;;;;;;16.77;9.98;;;;;;;;;;5050359;28;20139;-70
2022/01/23 11:32:35;;;;;;;15.60;9.77;;;;;;;;;;5032356;28;20025;-73
2022/01/23 11:35:06;;;;;;;13.07;7.80;;;;;;;;;;5050090;28;20021;-72
2022/01/23 11:37:32;;;;;;;;;;;;;;;;;;5050522;28;20013;-68
2022/01/23 11:40:04;;;;;;;17.08;10.02;;;;;;;;;;5031933;28;20417;-71
2022/01/23 11:53:58;;;;;;;11.45;6.57;;;;;;;;;;5034704;28;20452;-72
2022/01/23 11:56:37;;;;;;;9.20;5.95;;;;;;;;;;5061716;22;20061;-69
2022/01/23 11:59:17;;;;;;;6.97;4.95;;;;;;;;;;5065541;28;20415;-68
2022/01/23 12:01:45;;;;;;;15.18;8.57;;;;;;;;;;5069702;28;20031;-70
2022/01/23 12:04:17;;;;;;;10.65;6.65;;;;;;;;;;5069170;28;20024;-75
2022/01/23 12:06:46;;;;;;;8.20;5.97;;;;;;;;;;5038202;28;20033;-73
2022/01/23 12:09:19;;;;;;;6.97;4.82;;;;;;;;;;5037031;28;20123;-73
2022/01/23 12:12:04;;;;;;;14.75;8.30;;;;;;;;;;5036324;28;20495;-70
2022/01/23 12:17:07;;;;;;;6.95;4.80;;;;;;;;;;5029972;28;20461;-73
2022/01/23 12:19:33;;;;;;;6.65;4.35;;;;;;;;;;5011742;28;20116;-69
2022/01/23 12:22:19;;;;;;;7.35;4.45;;;;;;;;;;5030276;28;20113;-70
2022/01/23 12:24:52;;;;;;;8.27;5.43;;;;;;;;;;5031323;28;20108;-70
2022/01/23 12:27:24;;;;;;;12.35;6.45;;;;;;;;;;5031560;28;20044;-70
2022/01/23 12:29:51;;;;;;;11.40;6.38;;;;;;;;;;5031411;28;20028;-68
2022/01/23 12:32:29;;;;;;;12.73;8.05;;;;;;;;;;5031457;28;20506;-72
2022/01/23 12:35:00;;;;;;;4.55;4.00;;;;;;;;;;5031221;28;20032;-70
2022/01/23 12:37:27;;;;;;;7.78;4.80;;;;;;;;;;5032379;28;20036;-70
2022/01/23 12:40:22;;;;;;;8.30;5.07;;;;;;;;;;5014164;28;20025;-70
2022/01/23 12:43:07;;;;;;;9.13;5.13;;;;;;;;;;5031474;28;20472;-69
2022/01/23 12:45:42;;;;;;;8.68;5.53;;;;;;;;;;5013505;28;20032;-70
2022/01/23 12:48:27;;;;;;;6.13;3.90;;;;;;;;;;5031724;28;20484;-70
2022/01/23 12:51:02;;;;;;;9.00;5.75;;;;;;;;;;5013823;28;20025;-70
2022/01/23 12:53:57;;;;;;;5.35;4.15;;;;;;;;;;5031621;28;20026;-70
2022/01/23 12:56:40;;;;;;;8.98;5.05;;;;;;;;;;5031632;28;20083;-68
2022/01/23 12:59:09;;;;;;;8.27;5.35;;;;;;;;;;5014050;28;20112;-70
2022/01/23 13:01:37;;;;;;;5.43;4.18;;;;;;;;;;5011218;28;20091;-69
2022/01/23 13:04:04;;;;;;;5.25;4.15;;;;;;;;;;5030963;28;20021;-70
2022/01/23 13:06:34;;;;;;;7.20;4.80;;;;;;;;;;5013685;28;20048;-70
2022/01/23 13:09:27;;;;;;;7.40;4.13;;;;;;;;;;5031788;28;20028;-70
2022/01/23 13:15:14;;;;;;;3.90;2.92;;;;;;;;;;5029768;28;20107;-70
2022/01/23 13:31:35;;;;;;;8.85;5.10;;;;;;;;;;5031537;28;20028;-70
2022/01/23 13:34:01;;;;;;;;;;;;;;;;;;5012028;28;20018;-71
2022/01/23 13:36:27;;;;;;;3.35;2.72;;;;;;;;;;5003360;28;19931;-69
2022/01/23 13:38:56;;;;;;;3.70;2.88;;;;;;;;;;5031223;28;20083;-69
2022/01/23 13:41:26;;;;;;;5.57;3.10;;;;;;;;;;5013508;28;20029;-69
2022/01/23 13:52:21;;;;;;;8.30;4.70;;;;;;;;;;5035036;28;20025;-70
2022/01/23 13:57:43;;;;;;;7.15;4.25;;;;;;;;;;5020516;28;20044;-70
2022/01/23 14:00:22;;;;;;;7.55;4.70;;;;;;;;;;5035109;28;20082;-71
2022/01/23 14:02:48;;;;;;;6.03;4.03;;;;;;;;;;5034649;28;20021;-71
2022/01/23 14:05:15;;;;;;;8.23;4.68;;;;;;;;;;5034707;28;20021;-69
2022/01/23 14:07:45;;;;;;;5.43;4.07;;;;;;;;;;5016962;28;20072;-70
2022/01/23 14:10:17;;;;;;;7.13;4.83;;;;;;;;;;5034502;28;20049;-70
2022/01/23 14:12:44;;;;;;;5.55;3.80;;;;;;;;;;5034502;28;20513;-70
2022/01/23 14:15:16;;;;;;;7.93;4.50;;;;;;;;;;5034363;28;20075;-69
2022/01/23 14:17:42;;;;;;;7.63;4.78;;;;;;;;;;5034408;28;20091;-71
2022/01/23 14:20:08;;;;;;;8.30;4.82;;;;;;;;;;5016744;28;20033;-71
2022/01/23 14:22:39;;;;;;;5.88;4.55;;;;;;;;;;5034431;28;20025;-69
2022/01/23 14:25:06;;;;;;;7.03;4.15;;;;;;;;;;5033793;28;20033;-71
2022/01/23 14:27:32;;;;;;;9.07;5.32;;;;;;;;;;5033565;28;20054;-70
2022/01/23 14:29:59;;;;;;;5.00;4.13;;;;;;;;;;5032073;28;20061;-69
2022/01/23 14:32:35;;;;;;;8.15;5.45;;;;;;;;;;5023291;28;20387;-71
2022/01/23 14:35:12;;;;;;;7.38;4.85;;;;;;;;;;5018385;28;20018;-71
2022/01/23 14:37:39;;;;;;;5.43;4.03;;;;;;;;;;5033181;28;20025;-70
2022/01/23 14:40:11;;;;;;;6.97;5.05;;;;;;;;;;5034094;28;20028;-70
2022/01/23 14:42:37;;;;;;;4.93;3.78;;;;;;;;;;5034206;28;20498;-71
2022/01/23 14:45:06;;;;;;;6.32;4.47;;;;;;;;;;5033859;28;20030;-71
2022/01/23 14:47:37;;;;;;;8.48;5.65;;;;;;;;;;5034033;28;20029;-72
2022/01/23 14:50:09;;;;;;;7.82;5.45;;;;;;;;;;5034129;28;20022;-69
2022/01/23 14:52:36;;;;;;;6.32;4.57;;;;;;;;;;5033994;28;20068;-71
2022/01/23 14:55:02;;;;;;;5.63;4.00;;;;;;;;;;5034155;28;22135;-68
2022/01/23 14:57:31;;;;;;;8.63;5.68;;;;;;;;;;5034784;28;20033;-71
2022/01/23 14:59:59;;;;;;;8.43;4.97;;;;;;;;;;5034382;28;20083;-69
2022/01/23 15:02:25;;;;;;;7.57;5.60;;;;;;;;;;5032955;28;20546;-72
2022/01/23 15:04:51;;;;;;;8.85;6.00;;;;;;;;;;5032815;28;20036;-70
2022/01/23 15:07:18;;;;;;;9.48;5.10;;;;;;;;;;5031971;28;20021;-71
2022/01/23 15:09:46;;;;;;;7.13;5.32;;;;;;;;;;5030428;28;20530;-70
2022/01/23 15:12:13;;;;;;;6.30;5.00;;;;;;;;;;5031597;28;20487;-70
2022/01/23 15:14:40;;;;;;;6.53;4.63;;;;;;;;;;5031108;28;20092;-71
2022/01/23 15:17:06;;;;;;;6.43;4.82;;;;;;;;;;5029443;28;20454;-70
2022/01/23 15:19:32;;;;;;;6.35;4.55;;;;;;;;;;5012034;28;20077;-70
2022/01/23 15:21:58;;;;;;;6.82;5.25;;;;;;;;;;5012311;28;20053;-71
2022/01/23 15:24:24;;;;;;;6.93;4.45;;;;;;;;;;5011826;28;20073;-70
2022/01/23 15:26:50;;;;;;;6.55;4.80;;;;;;;;;;5030380;28;20018;-71
2022/01/23 15:29:16;;;;;;;6.75;4.78;;;;;;;;;;5033381;28;20072;-71
2022/01/23 15:31:42;;;;;;;6.55;4.13;;;;;;;;;;5032934;28;20044;-70
2022/01/23 15:34:08;;;;;;;6.10;4.18;;;;;;;;;;5032380;28;20021;-73
2022/01/23 15:36:36;;;;;;;6.32;4.70;;;;;;;;;;5031191;28;20071;-72
2022/01/23 15:39:05;;;;;;;9.07;5.07;;;;;;;;;;5031247;28;20064;-70
2022/01/23 15:41:31;;;;;;;8.73;5.13;;;;;;;;;;5031401;28;20049;-73
2022/01/23 15:43:57;;;;;;;9.27;5.95;;;;;;;;;;5013864;28;20483;-69
2022/01/23 15:46:23;;;;;;;9.77;6.20;;;;;;;;;;5031311;28;20395;-71
2022/01/23 15:48:49;;;;;;;53.25;21.92;;;;;;;;;;5031544;28;20018;-70
2022/01/23 15:51:15;;;;;;;7.20;5.30;;;;;;;;;;5032527;28;20036;-70
2022/01/23 15:53:43;;;;;;;8.65;5.03;;;;;;;;;;5014832;28;20017;-70
2022/01/23 15:56:09;;;;;;;7.43;5.00;;;;;;;;;;5014384;28;20033;-68
2022/01/23 15:58:35;;;;;;;8.43;5.47;;;;;;;;;;5030314;28;20059;-71
2022/01/23 16:01:01;;;;;;;8.18;5.80;;;;;;;;;;5031335;28;20033;-67
2022/01/23 16:03:27;;;;;;;8.65;6.20;;;;;;;;;;5030840;28;20026;-71
2022/01/23 16:05:53;;;;;;;8.20;6.05;;;;;;;;;;5032336;28;20112;-72
2022/01/23 16:08:20;;;;;;;9.48;5.85;;;;;;;;;;5012470;28;20570;-68
2022/01/23 16:10:46;;;;;;;8.38;6.28;;;;;;;;;;5014872;28;20483;-71
2022/01/23 16:13:12;;;;;;;8.70;6.10;;;;;;;;;;5032964;28;20087;-71
2022/01/23 16:15:39;;;;;;;11.45;7.65;;;;;;;;;;5031462;28;20040;-69
2022/01/23 16:18:04;;;;;;;10.95;7.93;;;;;;;;;;5012744;28;20029;-70
2022/01/23 16:20:31;;;;;;;12.15;8.27;;;;;;;;;;5032014;28;20368;-72
2022/01/23 16:22:57;;;;;;;15.05;8.77;;;;;;;;;;5014571;28;20112;-71
2022/01/23 16:25:23;;;;;;;12.73;7.93;;;;;;;;;;5032956;28;20095;-69
2022/01/23 16:27:49;;;;;;;12.73;8.43;;;;;;;;;;5033179;28;20021;-71
2022/01/23 16:30:16;;;;;;;12.93;9.10;;;;;;;;;;5032768;28;20171;-69
2022/01/23 16:32:42;;;;;;;13.50;8.70;;;;;;;;;;5032297;28;20052;-70
2022/01/23 16:35:11;;;;;;;11.88;7.70;;;;;;;;;;5032144;28;20147;-71
2022/01/23 16:37:37;;;;;;;12.00;8.15;;;;;;;;;;5031955;28;20475;-70
2022/01/23 16:40:03;;;;;;;12.75;8.95;;;;;;;;;;5031394;28;20044;-71
2022/01/23 16:42:29;;;;;;;13.43;8.88;;;;;;;;;;5031543;28;20017;-72
2022/01/23 16:44:55;;;;;;;14.52;9.50;;;;;;;;;;5031687;28;20461;-71
2022/01/23 16:47:21;;;;;;;13.25;9.55;;;;;;;;;;5014348;28;20049;-71
2022/01/23 16:49:47;;;;;;;12.82;9.40;;;;;;;;;;5032002;28;20383;-72
2022/01/23 16:52:13;;;;;;;15.35;8.85;;;;;;;;;;5031932;28;20100;-70
2022/01/23 16:54:43;;;;;;;12.93;9.43;;;;;;;;;;5014037;28;20026;-69
2022/01/23 16:57:09;;;;;;;24.73;13.80;;;;;;;;;;5030593;28;20035;-70
2022/01/23 16:59:35;;;;;;;16.80;9.15;;;;;;;;;;5012110;28;20021;-70
2022/01/23 17:02:01;;;;;;;14.75;9.35;;;;;;;;;;5029956;28;20515;-69
2022/01/23 17:04:32;;;;;;;11.73;7.53;;;;;;;;;;5029511;28;20029;-70
2022/01/23 17:06:58;;;;;;;15.73;9.75;;;;;;;;;;5041255;28;20075;-71
2022/01/23 17:09:24;;;;;;;13.90;9.02;;;;;;;;;;5049648;28;20158;-71
2022/01/23 17:11:50;;;;;;;13.13;8.25;;;;;;;;;;5037273;28;20544;-70
2022/01/23 17:14:19;;;;;;;14.10;7.55;;;;;;;;;;5026059;28;20438;-68
2022/01/23 17:16:44;;;;;;;11.70;8.32;;;;;;;;;;5033204;28;20503;-72
2022/01/23 17:19:10;;;;;;;13.75;9.18;;;;;;;;;;5019479;28;20064;-70
2022/01/23 17:21:36;;;;;;;14.77;9.82;;;;;;;;;;5038312;28;20067;-72
2022/01/23 17:24:02;;;;;;;12.73;8.85;;;;;;;;;;5050343;28;20493;-73
2022/01/23 17:26:29;;;;;;;13.00;9.05;;;;;;;;;;5052547;28;20048;-75
2022/01/23 17:28:55;;;;;;;12.70;8.55;;;;;;;;;;5052938;28;20539;-75
2022/01/23 17:31:21;;;;;;;13.40;8.65;;;;;;;;;;5054226;28;20100;-72
2022/01/23 17:33:47;;;;;;;16.17;9.25;;;;;;;;;;5054485;28;20442;-72
2022/01/23 17:36:13;;;;;;;14.27;9.25;;;;;;;;;;5054574;28;20083;-72
2022/01/23 17:38:40;;;;;;;15.98;8.52;;;;;;;;;;5051114;28;20109;-73
2022/01/23 17:41:08;;;;;;;14.73;9.10;;;;;;;;;;5054524;28;20558;-71
2022/01/23 17:43:52;;;;;;;12.60;8.48;;;;;;;;;;5053588;28;20024;-72
2022/01/23 17:46:22;;;;;;;12.43;7.55;;;;;;;;;;5053867;28;20060;-70